Blue Anchor, New Jersey
Current Conditions -  °F | °C
As of 12:54 AM on Wednesday 28 Jan 2015 (Local Time) from KACY Reporting Station
Clear Clear  
Wind Chill:   Ceiling: Unl
Heat Index: 20°   Visibility: 10mi
Dew Point:   Wind: 17mph
Humidity: 60%   Direction: 320°NW
Pressure: 29.89"   Gusts: NA
Location:  39.637°N, 74.7602°W
Report Text: KACY 280554Z 32015KT 10SM CLR M07/M13 A2989 RMK AO2 SLP120 T10671133 11011 21067 51023
Loading
Personal Weather Stations






























Interactive Weather Map New forecast layout! Learn more

10-Day Weather Forecast

Advertisements
Track Severe Weather on mobile